sensor_id;sensor_type;location;lat;lon;timestamp;P1;durP1;ratioP1;P2;durP2;ratioP2
41229;SDS011;26964;50.428;19.218;2024-03-08T00:00:16;54.0;;;31.4;;
41229;SDS011;26964;50.428;19.218;2024-03-08T00:01:15;50.4;;;30.8;;
41229;SDS011;26964;50.428;19.218;2024-03-08T00:02:15;47.0;;;29.4;;
41229;SDS011;26964;50.428;19.218;2024-03-08T00:03:15;56.4;;;31.3;;
41229;SDS011;26964;50.428;19.218;2024-03-08T00:04:15;46.6;;;30.4;;
41229;SDS011;26964;50.428;19.218;2024-03-08T00:05:15;48.8;;;29.6;;
41229;SDS011;26964;50.428;19.218;2024-03-08T00:06:15;50.9;;;30.8;;
41229;SDS011;26964;50.428;19.218;2024-03-08T00:07:15;51.4;;;30.4;;
41229;SDS011;26964;50.428;19.218;2024-03-08T00:08:15;50.6;;;31.0;;
41229;SDS011;26964;50.428;19.218;2024-03-08T00:09:15;53.9;;;31.5;;
41229;SDS011;26964;50.428;19.218;2024-03-08T00:10:15;47.7;;;29.3;;
41229;SDS011;26964;50.428;19.218;2024-03-08T00:11:15;53.1;;;33.0;;
41229;SDS011;26964;50.428;19.218;2024-03-08T00:12:15;52.3;;;32.5;;
41229;SDS011;26964;50.428;19.218;2024-03-08T00:13:15;53.8;;;31.7;;
41229;SDS011;26964;50.428;19.218;2024-03-08T00:14:15;53.7;;;32.6;;
41229;SDS011;26964;50.428;19.218;2024-03-08T00:15:16;53.9;;;31.4;;
41229;SDS011;26964;50.428;19.218;2024-03-08T00:16:15;51.8;;;32.0;;
41229;SDS011;26964;50.428;19.218;2024-03-08T00:17:17;53.5;;;32.5;;
41229;SDS011;26964;50.428;19.218;2024-03-08T00:18:15;49.8;;;31.1;;
41229;SDS011;26964;50.428;19.218;2024-03-08T00:19:15;51.1;;;32.2;;
41229;SDS011;26964;50.428;19.218;2024-03-08T00:20:15;52.1;;;30.9;;
41229;SDS011;26964;50.428;19.218;2024-03-08T00:21:15;50.1;;;31.1;;
41229;SDS011;26964;50.428;19.218;2024-03-08T00:22:15;52.7;;;30.5;;
41229;SDS011;26964;50.428;19.218;2024-03-08T00:23:15;48.9;;;29.6;;
41229;SDS011;26964;50.428;19.218;2024-03-08T00:24:15;51.3;;;31.1;;
41229;SDS011;26964;50.428;19.218;2024-03-08T00:25:15;52.2;;;31.9;;
41229;SDS011;26964;50.428;19.218;2024-03-08T00:26:15;52.6;;;31.0;;
41229;SDS011;26964;50.428;19.218;2024-03-08T00:27:15;57.2;;;32.1;;
41229;SDS011;26964;50.428;19.218;2024-03-08T00:28:15;50.7;;;31.4;;
41229;SDS011;26964;50.428;19.218;2024-03-08T00:29:15;54.3;;;31.8;;
41229;SDS011;26964;50.428;19.218;2024-03-08T00:30:15;49.7;;;31.0;;
41229;SDS011;26964;50.428;19.218;2024-03-08T00:31:15;49.4;;;30.9;;
41229;SDS011;26964;50.428;19.218;2024-03-08T00:32:15;52.4;;;31.1;;
41229;SDS011;26964;50.428;19.218;2024-03-08T00:33:15;56.3;;;31.4;;
41229;SDS011;26964;50.428;19.218;2024-03-08T00:34:15;53.5;;;31.6;;
41229;SDS011;26964;50.428;19.218;2024-03-08T00:35:15;50.0;;;30.9;;
41229;SDS011;26964;50.428;19.218;2024-03-08T00:36:15;48.9;;;30.0;;
41229;SDS011;26964;50.428;19.218;2024-03-08T00:37:15;47.6;;;29.7;;
41229;SDS011;26964;50.428;19.218;2024-03-08T00:38:17;49.3;;;31.1;;
41229;SDS011;26964;50.428;19.218;2024-03-08T00:39:15;53.0;;;32.2;;
41229;SDS011;26964;50.428;19.218;2024-03-08T00:40:15;48.4;;;30.8;;
41229;SDS011;26964;50.428;19.218;2024-03-08T00:41:15;48.1;;;30.8;;
41229;SDS011;26964;50.428;19.218;2024-03-08T00:42:15;49.9;;;30.1;;
41229;SDS011;26964;50.428;19.218;2024-03-08T00:43:15;47.8;;;29.5;;
41229;SDS011;26964;50.428;19.218;2024-03-08T00:44:15;56.7;;;30.5;;
41229;SDS011;26964;50.428;19.218;2024-03-08T00:45:15;49.1;;;30.2;;
41229;SDS011;26964;50.428;19.218;2024-03-08T00:46:15;51.5;;;32.3;;
41229;SDS011;26964;50.428;19.218;2024-03-08T00:47:15;52.0;;;31.1;;
41229;SDS011;26964;50.428;19.218;2024-03-08T00:48:15;51.2;;;31.5;;
41229;SDS011;26964;50.428;19.218;2024-03-08T00:49:15;53.5;;;32.1;;
41229;SDS011;26964;50.428;19.218;2024-03-08T00:50:15;53.4;;;33.7;;
41229;SDS011;26964;50.428;19.218;2024-03-08T00:51:15;52.1;;;30.9;;
41229;SDS011;26964;50.428;19.218;2024-03-08T00:52:15;50.4;;;31.6;;
41229;SDS011;26964;50.428;19.218;2024-03-08T00:53:15;52.5;;;32.3;;
41229;SDS011;26964;50.428;19.218;2024-03-08T00:54:15;53.9;;;30.6;;
41229;SDS011;26964;50.428;19.218;2024-03-08T00:55:16;50.0;;;31.3;;
41229;SDS011;26964;50.428;19.218;2024-03-08T00:56:15;50.4;;;29.6;;
41229;SDS011;26964;50.428;19.218;2024-03-08T00:57:16;54.6;;;32.6;;
41229;SDS011;26964;50.428;19.218;2024-03-08T00:58:15;52.7;;;31.6;;
41229;SDS011;26964;50.428;19.218;2024-03-08T00:59:18;51.1;;;31.6;;
41229;SDS011;26964;50.428;19.218;2024-03-08T01:00:15;52.1;;;30.7;;
41229;SDS011;26964;50.428;19.218;2024-03-08T01:01:16;49.8;;;31.2;;
41229;SDS011;26964;50.428;19.218;2024-03-08T01:02:15;51.1;;;31.0;;
41229;SDS011;26964;50.428;19.218;2024-03-08T01:03:15;51.1;;;31.3;;
41229;SDS011;26964;50.428;19.218;2024-03-08T01:04:15;49.7;;;31.0;;
41229;SDS011;26964;50.428;19.218;2024-03-08T01:05:15;54.4;;;31.3;;
41229;SDS011;26964;50.428;19.218;2024-03-08T01:06:15;49.4;;;31.0;;
41229;SDS011;26964;50.428;19.218;2024-03-08T01:07:15;51.9;;;30.8;;
41229;SDS011;26964;50.428;19.218;2024-03-08T01:08:15;50.8;;;31.5;;
41229;SDS011;26964;50.428;19.218;2024-03-08T01:09:15;48.1;;;30.0;;
41229;SDS011;26964;50.428;19.218;2024-03-08T01:10:15;53.4;;;31.9;;
41229;SDS011;26964;50.428;19.218;2024-03-08T01:11:15;47.3;;;30.3;;
41229;SDS011;26964;50.428;19.218;2024-03-08T01:12:15;49.8;;;30.4;;
41229;SDS011;26964;50.428;19.218;2024-03-08T01:13:15;49.2;;;31.0;;
41229;SDS011;26964;50.428;19.218;2024-03-08T01:14:16;49.9;;;29.2;;
41229;SDS011;26964;50.428;19.218;2024-03-08T01:15:15;49.9;;;29.7;;
41229;SDS011;26964;50.428;19.218;2024-03-08T01:16:15;51.5;;;29.8;;
41229;SDS011;26964;50.428;19.218;2024-03-08T01:17:15;47.6;;;29.4;;
41229;SDS011;26964;50.428;19.218;2024-03-08T01:18:16;47.4;;;29.7;;
41229;SDS011;26964;50.428;19.218;2024-03-08T01:19:15;47.6;;;29.1;;
41229;SDS011;26964;50.428;19.218;2024-03-08T01:20:17;47.7;;;28.1;;
41229;SDS011;26964;50.428;19.218;2024-03-08T01:21:15;46.9;;;29.7;;
41229;SDS011;26964;50.428;19.218;2024-03-08T01:22:15;45.0;;;27.4;;
41229;SDS011;26964;50.428;19.218;2024-03-08T01:23:15;49.8;;;30.3;;
41229;SDS011;26964;50.428;19.218;2024-03-08T01:24:15;47.2;;;28.4;;
41229;SDS011;26964;50.428;19.218;2024-03-08T01:25:15;48.1;;;29.3;;
41229;SDS011;26964;50.428;19.218;2024-03-08T01:26:15;47.2;;;27.4;;
41229;SDS011;26964;50.428;19.218;2024-03-08T01:27:16;47.4;;;28.6;;
41229;SDS011;26964;50.428;19.218;2024-03-08T01:28:15;46.1;;;28.8;;
41229;SDS011;26964;50.428;19.218;2024-03-08T01:29:15;44.6;;;28.9;;
41229;SDS011;26964;50.428;19.218;2024-03-08T01:30:15;48.2;;;29.0;;
41229;SDS011;26964;50.428;19.218;2024-03-08T01:31:15;45.9;;;29.5;;
41229;SDS011;26964;50.428;19.218;2024-03-08T01:32:15;45.4;;;27.6;;
41229;SDS011;26964;50.428;19.218;2024-03-08T01:33:15;45.3;;;29.4;;
41229;SDS011;26964;50.428;19.218;2024-03-08T01:34:15;43.9;;;27.9;;
41229;SDS011;26964;50.428;19.218;2024-03-08T01:35:15;47.7;;;28.9;;
41229;SDS011;26964;50.428;19.218;2024-03-08T01:36:15;50.6;;;29.3;;
41229;SDS011;26964;50.428;19.218;2024-03-08T01:37:15;45.9;;;28.4;;
41229;SDS011;26964;50.428;19.218;2024-03-08T01:38:15;50.4;;;30.1;;
41229;SDS011;26964;50.428;19.218;2024-03-08T01:39:15;47.1;;;29.2;;
41229;SDS011;26964;50.428;19.218;2024-03-08T01:40:15;46.8;;;29.8;;
41229;SDS011;26964;50.428;19.218;2024-03-08T01:41:18;47.5;;;28.5;;
41229;SDS011;26964;50.428;19.218;2024-03-08T01:42:15;48.6;;;29.5;;
41229;SDS011;26964;50.428;19.218;2024-03-08T01:44:15;50.0;;;30.4;;
41229;SDS011;26964;50.428;19.218;2024-03-08T01:45:15;48.2;;;29.8;;
41229;SDS011;26964;50.428;19.218;2024-03-08T01:46:16;52.5;;;31.1;;
41229;SDS011;26964;50.428;19.218;2024-03-08T01:47:15;49.3;;;30.2;;
41229;SDS011;26964;50.428;19.218;2024-03-08T01:48:15;46.2;;;29.0;;
41229;SDS011;26964;50.428;19.218;2024-03-08T01:49:15;46.5;;;29.3;;
41229;SDS011;26964;50.428;19.218;2024-03-08T01:50:15;49.9;;;31.4;;
41229;SDS011;26964;50.428;19.218;2024-03-08T01:51:15;49.4;;;28.9;;
41229;SDS011;26964;50.428;19.218;2024-03-08T01:52:15;47.4;;;30.1;;
41229;SDS011;26964;50.428;19.218;2024-03-08T01:53:15;48.5;;;30.5;;
41229;SDS011;26964;50.428;19.218;2024-03-08T01:54:15;52.2;;;30.7;;
41229;SDS011;26964;50.428;19.218;2024-03-08T01:55:15;49.7;;;30.1;;
41229;SDS011;26964;50.428;19.218;2024-03-08T01:56:15;51.9;;;31.1;;
41229;SDS011;26964;50.428;19.218;2024-03-08T01:57:15;50.2;;;30.8;;
41229;SDS011;26964;50.428;19.218;2024-03-08T01:58:15;48.9;;;29.9;;
41229;SDS011;26964;50.428;19.218;2024-03-08T01:59:15;50.1;;;31.8;;
41229;SDS011;26964;50.428;19.218;2024-03-08T02:00:15;51.7;;;32.0;;
41229;SDS011;26964;50.428;19.218;2024-03-08T02:01:15;49.8;;;29.8;;
41229;SDS011;26964;50.428;19.218;2024-03-08T02:02:18;52.2;;;30.7;;
41229;SDS011;26964;50.428;19.218;2024-03-08T02:03:15;49.0;;;30.7;;
41229;SDS011;26964;50.428;19.218;2024-03-08T02:04:15;49.6;;;30.3;;
41229;SDS011;26964;50.428;19.218;2024-03-08T02:05:15;48.9;;;30.9;;
41229;SDS011;26964;50.428;19.218;2024-03-08T02:06:15;47.5;;;29.8;;
41229;SDS011;26964;50.428;19.218;2024-03-08T02:07:15;54.8;;;31.3;;
41229;SDS011;26964;50.428;19.218;2024-03-08T02:08:15;44.6;;;29.2;;
41229;SDS011;26964;50.428;19.218;2024-03-08T02:09:15;48.9;;;29.2;;
41229;SDS011;26964;50.428;19.218;2024-03-08T02:10:15;46.8;;;28.9;;
41229;SDS011;26964;50.428;19.218;2024-03-08T02:11:15;48.9;;;29.7;;
41229;SDS011;26964;50.428;19.218;2024-03-08T02:12:15;45.0;;;28.2;;
41229;SDS011;26964;50.428;19.218;2024-03-08T02:13:15;46.5;;;28.5;;
41229;SDS011;26964;50.428;19.218;2024-03-08T02:14:15;47.4;;;29.0;;
41229;SDS011;26964;50.428;19.218;2024-03-08T02:15:15;48.6;;;29.5;;
41229;SDS011;26964;50.428;19.218;2024-03-08T02:17:15;51.1;;;29.2;;
41229;SDS011;26964;50.428;19.218;2024-03-08T02:18:15;44.8;;;28.5;;
41229;SDS011;26964;50.428;19.218;2024-03-08T02:19:15;46.6;;;29.2;;
41229;SDS011;26964;50.428;19.218;2024-03-08T02:20:15;46.2;;;28.7;;
41229;SDS011;26964;50.428;19.218;2024-03-08T02:21:16;44.4;;;28.3;;
41229;SDS011;26964;50.428;19.218;2024-03-08T02:22:16;43.5;;;27.7;;
41229;SDS011;26964;50.428;19.218;2024-03-08T02:23:15;46.2;;;28.1;;
41229;SDS011;26964;50.428;19.218;2024-03-08T02:24:15;45.0;;;28.6;;
41229;SDS011;26964;50.428;19.218;2024-03-08T02:25:15;44.0;;;27.3;;
41229;SDS011;26964;50.428;19.218;2024-03-08T02:26:15;46.8;;;28.4;;
41229;SDS011;26964;50.428;19.218;2024-03-08T02:27:15;43.9;;;27.7;;
41229;SDS011;26964;50.428;19.218;2024-03-08T02:28:15;46.3;;;28.9;;
41229;SDS011;26964;50.428;19.218;2024-03-08T02:29:15;44.4;;;28.5;;
41229;SDS011;26964;50.428;19.218;2024-03-08T02:30:15;43.4;;;27.4;;
41229;SDS011;26964;50.428;19.218;2024-03-08T02:31:15;48.5;;;29.0;;
41229;SDS011;26964;50.428;19.218;2024-03-08T02:32:15;46.0;;;27.5;;
41229;SDS011;26964;50.428;19.218;2024-03-08T02:33:15;44.9;;;28.5;;
41229;SDS011;26964;50.428;19.218;2024-03-08T02:34:15;44.2;;;28.4;;
41229;SDS011;26964;50.428;19.218;2024-03-08T02:35:15;46.5;;;28.4;;
41229;SDS011;26964;50.428;19.218;2024-03-08T02:36:15;49.5;;;30.4;;
41229;SDS011;26964;50.428;19.218;2024-03-08T02:37:15;45.1;;;29.4;;
41229;SDS011;26964;50.428;19.218;2024-03-08T02:38:15;43.8;;;29.3;;
41229;SDS011;26964;50.428;19.218;2024-03-08T02:39:15;49.1;;;30.3;;
41229;SDS011;26964;50.428;19.218;2024-03-08T02:40:15;48.8;;;28.8;;
41229;SDS011;26964;50.428;19.218;2024-03-08T02:41:15;50.7;;;31.2;;
41229;SDS011;26964;50.428;19.218;2024-03-08T02:42:15;48.9;;;28.9;;
41229;SDS011;26964;50.428;19.218;2024-03-08T02:43:16;50.6;;;30.9;;
41229;SDS011;26964;50.428;19.218;2024-03-08T02:44:15;49.1;;;30.3;;
41229;SDS011;26964;50.428;19.218;2024-03-08T02:45:15;49.2;;;30.7;;
41229;SDS011;26964;50.428;19.218;2024-03-08T02:46:15;51.3;;;30.1;;
41229;SDS011;26964;50.428;19.218;2024-03-08T02:47:15;51.2;;;30.4;;
41229;SDS011;26964;50.428;19.218;2024-03-08T02:48:15;46.1;;;28.8;;
41229;SDS011;26964;50.428;19.218;2024-03-08T02:49:15;50.5;;;31.4;;
41229;SDS011;26964;50.428;19.218;2024-03-08T02:50:15;46.8;;;30.2;;
41229;SDS011;26964;50.428;19.218;2024-03-08T02:51:15;50.7;;;30.2;;
41229;SDS011;26964;50.428;19.218;2024-03-08T02:52:15;51.3;;;30.6;;
41229;SDS011;26964;50.428;19.218;2024-03-08T02:53:15;47.9;;;29.7;;
41229;SDS011;26964;50.428;19.218;2024-03-08T02:54:15;47.3;;;29.9;;
41229;SDS011;26964;50.428;19.218;2024-03-08T02:55:15;43.8;;;28.1;;
41229;SDS011;26964;50.428;19.218;2024-03-08T02:56:15;45.9;;;27.7;;
41229;SDS011;26964;50.428;19.218;2024-03-08T02:57:15;45.0;;;28.7;;
41229;SDS011;26964;50.428;19.218;2024-03-08T02:58:15;42.2;;;27.5;;
41229;SDS011;26964;50.428;19.218;2024-03-08T02:59:15;45.2;;;27.2;;
41229;SDS011;26964;50.428;19.218;2024-03-08T03:00:15;45.7;;;28.5;;
41229;SDS011;26964;50.428;19.218;2024-03-08T03:01:15;45.8;;;27.9;;
41229;SDS011;26964;50.428;19.218;2024-03-08T03:02:15;43.8;;;27.9;;
41229;SDS011;26964;50.428;19.218;2024-03-08T03:03:15;45.7;;;28.7;;
41229;SDS011;26964;50.428;19.218;2024-03-08T03:04:16;48.8;;;30.6;;
41229;SDS011;26964;50.428;19.218;2024-03-08T03:05:15;42.4;;;27.1;;
41229;SDS011;26964;50.428;19.218;2024-03-08T03:06:15;43.0;;;27.8;;
41229;SDS011;26964;50.428;19.218;2024-03-08T03:07:15;45.3;;;28.8;;
41229;SDS011;26964;50.428;19.218;2024-03-08T03:08:15;43.1;;;27.9;;
41229;SDS011;26964;50.428;19.218;2024-03-08T03:09:15;47.6;;;29.7;;
41229;SDS011;26964;50.428;19.218;2024-03-08T03:10:16;44.6;;;27.0;;
41229;SDS011;26964;50.428;19.218;2024-03-08T03:11:15;46.4;;;28.5;;
41229;SDS011;26964;50.428;19.218;2024-03-08T03:12:15;44.5;;;28.1;;
41229;SDS011;26964;50.428;19.218;2024-03-08T03:13:15;45.7;;;28.9;;
41229;SDS011;26964;50.428;19.218;2024-03-08T03:14:15;44.3;;;28.9;;
41229;SDS011;26964;50.428;19.218;2024-03-08T03:15:15;45.4;;;29.1;;
41229;SDS011;26964;50.428;19.218;2024-03-08T03:16:16;43.6;;;28.9;;
41229;SDS011;26964;50.428;19.218;2024-03-08T03:17:15;46.1;;;29.8;;
41229;SDS011;26964;50.428;19.218;2024-03-08T03:18:15;43.8;;;28.4;;
41229;SDS011;26964;50.428;19.218;2024-03-08T03:19:15;46.9;;;29.3;;
41229;SDS011;26964;50.428;19.218;2024-03-08T03:20:15;44.3;;;28.5;;
41229;SDS011;26964;50.428;19.218;2024-03-08T03:21:15;45.7;;;29.3;;
41229;SDS011;26964;50.428;19.218;2024-03-08T03:22:15;43.8;;;28.4;;
41229;SDS011;26964;50.428;19.218;2024-03-08T03:23:15;45.8;;;30.0;;
41229;SDS011;26964;50.428;19.218;2024-03-08T03:24:15;46.3;;;29.1;;
41229;SDS011;26964;50.428;19.218;2024-03-08T03:25:16;46.8;;;28.9;;
41229;SDS011;26964;50.428;19.218;2024-03-08T03:26:15;45.4;;;29.7;;
41229;SDS011;26964;50.428;19.218;2024-03-08T03:27:15;48.3;;;30.1;;
41229;SDS011;26964;50.428;19.218;2024-03-08T03:28:15;46.6;;;29.6;;
41229;SDS011;26964;50.428;19.218;2024-03-08T03:29:15;45.1;;;28.5;;
41229;SDS011;26964;50.428;19.218;2024-03-08T03:30:15;50.0;;;30.0;;
41229;SDS011;26964;50.428;19.218;2024-03-08T03:31:15;43.5;;;29.3;;
41229;SDS011;26964;50.428;19.218;2024-03-08T03:32:15;45.1;;;28.8;;
41229;SDS011;26964;50.428;19.218;2024-03-08T03:33:15;52.1;;;30.8;;
41229;SDS011;26964;50.428;19.218;2024-03-08T03:34:15;44.0;;;28.6;;
41229;SDS011;26964;50.428;19.218;2024-03-08T03:35:15;51.2;;;31.1;;
41229;SDS011;26964;50.428;19.218;2024-03-08T03:36:15;49.2;;;31.4;;
41229;SDS011;26964;50.428;19.218;2024-03-08T03:37:15;48.3;;;30.0;;
41229;SDS011;26964;50.428;19.218;2024-03-08T03:38:15;49.3;;;32.7;;
41229;SDS011;26964;50.428;19.218;2024-03-08T03:39:15;48.6;;;30.7;;
41229;SDS011;26964;50.428;19.218;2024-03-08T03:40:15;52.4;;;32.1;;
41229;SDS011;26964;50.428;19.218;2024-03-08T03:41:15;50.3;;;30.3;;
41229;SDS011;26964;50.428;19.218;2024-03-08T03:42:15;48.8;;;30.6;;
41229;SDS011;26964;50.428;19.218;2024-03-08T03:43:15;48.7;;;31.7;;
41229;SDS011;26964;50.428;19.218;2024-03-08T03:44:15;47.8;;;30.6;;
41229;SDS011;26964;50.428;19.218;2024-03-08T03:45:15;46.3;;;29.8;;
41229;SDS011;26964;50.428;19.218;2024-03-08T03:46:16;48.6;;;32.3;;
41229;SDS011;26964;50.428;19.218;2024-03-08T03:47:15;45.8;;;30.4;;
41229;SDS011;26964;50.428;19.218;2024-03-08T03:48:15;50.8;;;30.2;;
41229;SDS011;26964;50.428;19.218;2024-03-08T03:49:15;45.3;;;30.5;;
41229;SDS011;26964;50.428;19.218;2024-03-08T03:50:15;52.8;;;30.9;;
41229;SDS011;26964;50.428;19.218;2024-03-08T03:51:15;47.8;;;30.9;;
41229;SDS011;26964;50.428;19.218;2024-03-08T03:52:15;48.3;;;30.8;;
41229;SDS011;26964;50.428;19.218;2024-03-08T03:53:15;46.8;;;30.6;;
41229;SDS011;26964;50.428;19.218;2024-03-08T03:54:15;46.2;;;30.7;;
41229;SDS011;26964;50.428;19.218;2024-03-08T03:55:15;44.9;;;28.7;;
41229;SDS011;26964;50.428;19.218;2024-03-08T03:56:15;45.6;;;29.6;;
41229;SDS011;26964;50.428;19.218;2024-03-08T03:57:15;48.1;;;30.2;;
41229;SDS011;26964;50.428;19.218;2024-03-08T03:58:15;46.6;;;30.3;;
41229;SDS011;26964;50.428;19.218;2024-03-08T03:59:15;48.3;;;30.7;;
41229;SDS011;26964;50.428;19.218;2024-03-08T04:00:15;43.1;;;28.3;;
41229;SDS011;26964;50.428;19.218;2024-03-08T04:01:15;46.7;;;29.9;;
41229;SDS011;26964;50.428;19.218;2024-03-08T04:02:15;45.0;;;30.4;;
41229;SDS011;26964;50.428;19.218;2024-03-08T04:03:15;45.9;;;29.9;;
41229;SDS011;26964;50.428;19.218;2024-03-08T04:04:15;50.2;;;30.6;;
41229;SDS011;26964;50.428;19.218;2024-03-08T04:05:15;46.0;;;30.2;;
41229;SDS011;26964;50.428;19.218;2024-03-08T04:06:15;47.5;;;29.1;;
41229;SDS011;26964;50.428;19.218;2024-03-08T04:07:17;52.2;;;30.8;;
41229;SDS011;26964;50.428;19.218;2024-03-08T04:08:15;45.2;;;28.8;;
41229;SDS011;26964;50.428;19.218;2024-03-08T04:09:15;46.2;;;29.4;;
41229;SDS011;26964;50.428;19.218;2024-03-08T04:10:15;43.8;;;28.9;;
41229;SDS011;26964;50.428;19.218;2024-03-08T04:11:15;47.3;;;29.4;;
41229;SDS011;26964;50.428;19.218;2024-03-08T04:12:15;41.8;;;26.6;;
41229;SDS011;26964;50.428;19.218;2024-03-08T04:13:15;43.2;;;26.2;;
41229;SDS011;26964;50.428;19.218;2024-03-08T04:14:15;44.4;;;28.0;;
41229;SDS011;26964;50.428;19.218;2024-03-08T04:15:15;41.4;;;27.2;;
41229;SDS011;26964;50.428;19.218;2024-03-08T04:16:15;40.8;;;27.4;;
41229;SDS011;26964;50.428;19.218;2024-03-08T04:17:15;41.6;;;27.4;;
41229;SDS011;26964;50.428;19.218;2024-03-08T04:18:15;39.0;;;25.2;;
41229;SDS011;26964;50.428;19.218;2024-03-08T04:19:15;37.8;;;26.0;;
41229;SDS011;26964;50.428;19.218;2024-03-08T04:20:15;42.3;;;26.7;;
41229;SDS011;26964;50.428;19.218;2024-03-08T04:21:15;39.6;;;26.2;;
41229;SDS011;26964;50.428;19.218;2024-03-08T04:22:15;39.9;;;26.1;;
41229;SDS011;26964;50.428;19.218;2024-03-08T04:23:15;41.5;;;26.8;;
41229;SDS011;26964;50.428;19.218;2024-03-08T04:24:15;38.6;;;25.3;;
41229;SDS011;26964;50.428;19.218;2024-03-08T04:25:15;39.5;;;26.1;;
41229;SDS011;26964;50.428;19.218;2024-03-08T04:26:15;42.4;;;26.1;;
41229;SDS011;26964;50.428;19.218;2024-03-08T04:27:15;43.5;;;27.8;;
41229;SDS011;26964;50.428;19.218;2024-03-08T04:28:17;43.9;;;27.2;;
41229;SDS011;26964;50.428;19.218;2024-03-08T04:29:15;40.9;;;26.2;;
41229;SDS011;26964;50.428;19.218;2024-03-08T04:30:15;39.6;;;27.0;;
41229;SDS011;26964;50.428;19.218;2024-03-08T04:31:15;39.3;;;26.7;;
41229;SDS011;26964;50.428;19.218;2024-03-08T04:32:15;43.9;;;27.0;;
41229;SDS011;26964;50.428;19.218;2024-03-08T04:33:15;40.1;;;26.4;;
41229;SDS011;26964;50.428;19.218;2024-03-08T04:34:15;44.1;;;27.1;;
41229;SDS011;26964;50.428;19.218;2024-03-08T04:35:15;40.4;;;26.6;;
41229;SDS011;26964;50.428;19.218;2024-03-08T04:36:15;38.2;;;25.9;;
41229;SDS011;26964;50.428;19.218;2024-03-08T04:37:15;41.2;;;26.7;;
41229;SDS011;26964;50.428;19.218;2024-03-08T04:38:15;40.1;;;25.8;;
41229;SDS011;26964;50.428;19.218;2024-03-08T04:39:15;40.8;;;26.6;;
41229;SDS011;26964;50.428;19.218;2024-03-08T04:40:15;41.4;;;26.3;;
41229;SDS011;26964;50.428;19.218;2024-03-08T04:41:15;35.9;;;25.4;;
41229;SDS011;26964;50.428;19.218;2024-03-08T04:42:15;38.7;;;26.4;;
41229;SDS011;26964;50.428;19.218;2024-03-08T04:43:15;41.8;;;25.0;;
41229;SDS011;26964;50.428;19.218;2024-03-08T04:44:15;35.6;;;24.5;;
41229;SDS011;26964;50.428;19.218;2024-03-08T04:45:15;36.8;;;24.8;;
41229;SDS011;26964;50.428;19.218;2024-03-08T04:46:15;37.3;;;25.4;;
41229;SDS011;26964;50.428;19.218;2024-03-08T04:47:15;37.0;;;24.4;;
41229;SDS011;26964;50.428;19.218;2024-03-08T04:48:15;34.4;;;25.2;;
41229;SDS011;26964;50.428;19.218;2024-03-08T04:49:17;36.2;;;23.8;;
41229;SDS011;26964;50.428;19.218;2024-03-08T04:50:15;35.9;;;24.3;;
41229;SDS011;26964;50.428;19.218;2024-03-08T04:51:15;34.1;;;24.5;;
41229;SDS011;26964;50.428;19.218;2024-03-08T04:52:15;34.6;;;23.2;;
41229;SDS011;26964;50.428;19.218;2024-03-08T04:53:15;31.4;;;22.7;;
41229;SDS011;26964;50.428;19.218;2024-03-08T04:54:15;34.0;;;22.7;;
41229;SDS011;26964;50.428;19.218;2024-03-08T04:55:15;34.4;;;23.9;;
41229;SDS011;26964;50.428;19.218;2024-03-08T04:56:15;31.5;;;22.9;;
41229;SDS011;26964;50.428;19.218;2024-03-08T04:57:15;34.1;;;23.9;;
41229;SDS011;26964;50.428;19.218;2024-03-08T04:58:15;32.6;;;22.1;;
41229;SDS011;26964;50.428;19.218;2024-03-08T04:59:15;31.6;;;22.9;;
41229;SDS011;26964;50.428;19.218;2024-03-08T05:00:15;32.7;;;22.8;;
41229;SDS011;26964;50.428;19.218;2024-03-08T05:01:15;30.6;;;22.7;;
41229;SDS011;26964;50.428;19.218;2024-03-08T05:02:15;30.1;;;21.1;;
41229;SDS011;26964;50.428;19.218;2024-03-08T05:03:14;35.5;;;22.5;;
41229;SDS011;26964;50.428;19.218;2024-03-08T05:04:15;31.9;;;22.5;;
41229;SDS011;26964;50.428;19.218;2024-03-08T05:05:15;37.4;;;23.4;;
41229;SDS011;26964;50.428;19.218;2024-03-08T05:06:15;31.1;;;21.7;;
41229;SDS011;26964;50.428;19.218;2024-03-08T05:07:14;31.9;;;22.8;;
41229;SDS011;26964;50.428;19.218;2024-03-08T05:08:15;30.9;;;21.7;;
41229;SDS011;26964;50.428;19.218;2024-03-08T05:09:15;31.5;;;22.0;;
41229;SDS011;26964;50.428;19.218;2024-03-08T05:10:17;31.7;;;22.6;;
41229;SDS011;26964;50.428;19.218;2024-03-08T05:11:15;30.9;;;21.7;;
41229;SDS011;26964;50.428;19.218;2024-03-08T05:12:15;34.8;;;24.4;;
41229;SDS011;26964;50.428;19.218;2024-03-08T05:13:15;32.9;;;23.3;;
41229;SDS011;26964;50.428;19.218;2024-03-08T05:14:15;33.9;;;22.5;;
41229;SDS011;26964;50.428;19.218;2024-03-08T05:15:15;38.0;;;26.3;;
41229;SDS011;26964;50.428;19.218;2024-03-08T05:16:15;62.8;;;44.8;;
41229;SDS011;26964;50.428;19.218;2024-03-08T05:17:14;48.2;;;34.3;;
41229;SDS011;26964;50.428;19.218;2024-03-08T05:18:14;39.0;;;28.2;;
41229;SDS011;26964;50.428;19.218;2024-03-08T05:19:15;29.7;;;22.0;;
41229;SDS011;26964;50.428;19.218;2024-03-08T05:20:15;30.2;;;21.4;;
41229;SDS011;26964;50.428;19.218;2024-03-08T05:21:15;29.2;;;20.2;;
41229;SDS011;26964;50.428;19.218;2024-03-08T05:22:14;32.2;;;21.3;;
41229;SDS011;26964;50.428;19.218;2024-03-08T05:23:15;30.4;;;21.7;;
41229;SDS011;26964;50.428;19.218;2024-03-08T05:24:15;31.7;;;22.2;;
41229;SDS011;26964;50.428;19.218;2024-03-08T05:25:15;33.0;;;21.2;;
41229;SDS011;26964;50.428;19.218;2024-03-08T05:26:15;32.2;;;21.8;;
41229;SDS011;26964;50.428;19.218;2024-03-08T05:27:14;31.2;;;21.8;;
41229;SDS011;26964;50.428;19.218;2024-03-08T05:28:14;31.6;;;22.2;;
41229;SDS011;26964;50.428;19.218;2024-03-08T05:29:15;37.6;;;23.0;;
41229;SDS011;26964;50.428;19.218;2024-03-08T05:30:14;53.3;;;34.3;;
41229;SDS011;26964;50.428;19.218;2024-03-08T05:31:19;52.4;;;34.0;;
41229;SDS011;26964;50.428;19.218;2024-03-08T05:32:14;37.3;;;24.1;;
41229;SDS011;26964;50.428;19.218;2024-03-08T05:33:14;37.6;;;26.7;;
41229;SDS011;26964;50.428;19.218;2024-03-08T05:34:15;51.7;;;35.1;;
41229;SDS011;26964;50.428;19.218;2024-03-08T05:35:14;52.9;;;34.0;;
41229;SDS011;26964;50.428;19.218;2024-03-08T05:36:15;56.8;;;36.0;;
41229;SDS011;26964;50.428;19.218;2024-03-08T05:37:14;36.8;;;25.7;;
41229;SDS011;26964;50.428;19.218;2024-03-08T05:38:14;35.8;;;25.5;;
41229;SDS011;26964;50.428;19.218;2024-03-08T05:39:15;32.5;;;22.0;;
41229;SDS011;26964;50.428;19.218;2024-03-08T05:40:15;35.1;;;23.3;;
41229;SDS011;26964;50.428;19.218;2024-03-08T05:41:15;32.7;;;22.7;;
41229;SDS011;26964;50.428;19.218;2024-03-08T05:42:15;33.1;;;23.0;;
41229;SDS011;26964;50.428;19.218;2024-03-08T05:43:14;39.7;;;25.5;;
41229;SDS011;26964;50.428;19.218;2024-03-08T05:44:14;43.5;;;27.0;;
41229;SDS011;26964;50.428;19.218;2024-03-08T05:45:15;55.3;;;32.2;;
41229;SDS011;26964;50.428;19.218;2024-03-08T05:46:15;71.0;;;36.4;;
41229;SDS011;26964;50.428;19.218;2024-03-08T05:47:15;41.7;;;25.9;;
41229;SDS011;26964;50.428;19.218;2024-03-08T05:48:14;92.0;;;44.8;;
41229;SDS011;26964;50.428;19.218;2024-03-08T05:49:14;82.1;;;42.0;;
41229;SDS011;26964;50.428;19.218;2024-03-08T05:50:15;98.8;;;48.4;;
41229;SDS011;26964;50.428;19.218;2024-03-08T05:51:15;116.6;;;55.4;;
41229;SDS011;26964;50.428;19.218;2024-03-08T05:52:18;116.2;;;53.0;;
41229;SDS011;26964;50.428;19.218;2024-03-08T05:53:14;74.2;;;39.5;;
41229;SDS011;26964;50.428;19.218;2024-03-08T05:54:15;70.2;;;34.3;;
41229;SDS011;26964;50.428;19.218;2024-03-08T05:55:15;66.0;;;36.2;;
41229;SDS011;26964;50.428;19.218;2024-03-08T05:56:14;77.2;;;39.2;;
41229;SDS011;26964;50.428;19.218;2024-03-08T05:57:15;94.6;;;43.6;;